sensor_id;sensor_type;location;lat;lon;timestamp;P1;durP1;ratioP1;P2;durP2;ratioP2
2748;SDS011;1382;52.142;11.618;2023-03-12T00:02:00;6.87;;;2.40;;
2748;SDS011;1382;52.142;11.618;2023-03-12T00:04:27;3.73;;;1.60;;
2748;SDS011;1382;52.142;11.618;2023-03-12T00:06:56;7.93;;;2.10;;
2748;SDS011;1382;52.142;11.618;2023-03-12T00:09:23;4.80;;;1.33;;
2748;SDS011;1382;52.142;11.618;2023-03-12T00:11:49;8.70;;;1.93;;
2748;SDS011;1382;52.142;11.618;2023-03-12T00:14:16;4.07;;;1.37;;
2748;SDS011;1382;52.142;11.618;2023-03-12T00:16:43;2.20;;;1.30;;
2748;SDS011;1382;52.142;11.618;2023-03-12T00:19:11;3.27;;;1.47;;
2748;SDS011;1382;52.142;11.618;2023-03-12T00:21:38;6.03;;;2.07;;
2748;SDS011;1382;52.142;11.618;2023-03-12T00:24:06;5.80;;;1.40;;
2748;SDS011;1382;52.142;11.618;2023-03-12T00:26:33;4.87;;;1.30;;
2748;SDS011;1382;52.142;11.618;2023-03-12T00:29:00;3.63;;;1.90;;
2748;SDS011;1382;52.142;11.618;2023-03-12T00:31:28;3.70;;;1.33;;
2748;SDS011;1382;52.142;11.618;2023-03-12T00:33:56;4.13;;;1.60;;
2748;SDS011;1382;52.142;11.618;2023-03-12T00:36:25;3.50;;;1.30;;
2748;SDS011;1382;52.142;11.618;2023-03-12T00:38:55;1.77;;;1.20;;
2748;SDS011;1382;52.142;11.618;2023-03-12T00:41:23;3.80;;;1.77;;
2748;SDS011;1382;52.142;11.618;2023-03-12T00:43:50;3.00;;;2.17;;
2748;SDS011;1382;52.142;11.618;2023-03-12T00:46:19;2.97;;;2.00;;
2748;SDS011;1382;52.142;11.618;2023-03-12T00:48:47;2.53;;;1.57;;
2748;SDS011;1382;52.142;11.618;2023-03-12T00:51:14;1.60;;;1.10;;
2748;SDS011;1382;52.142;11.618;2023-03-12T00:53:42;8.97;;;2.17;;
2748;SDS011;1382;52.142;11.618;2023-03-12T00:56:09;3.00;;;1.70;;
2748;SDS011;1382;52.142;11.618;2023-03-12T00:58:35;2.37;;;1.70;;
2748;SDS011;1382;52.142;11.618;2023-03-12T01:01:02;2.80;;;1.90;;
2748;SDS011;1382;52.142;11.618;2023-03-12T01:03:29;3.17;;;1.77;;
2748;SDS011;1382;52.142;11.618;2023-03-12T01:05:56;3.87;;;1.57;;
2748;SDS011;1382;52.142;11.618;2023-03-12T01:08:23;2.13;;;1.40;;
2748;SDS011;1382;52.142;11.618;2023-03-12T01:10:51;2.40;;;1.30;;
2748;SDS011;1382;52.142;11.618;2023-03-12T01:13:18;3.93;;;1.33;;
2748;SDS011;1382;52.142;11.618;2023-03-12T01:15:45;2.70;;;1.10;;
2748;SDS011;1382;52.142;11.618;2023-03-12T01:18:12;4.60;;;1.33;;
2748;SDS011;1382;52.142;11.618;2023-03-12T01:20:39;9.40;;;2.40;;
2748;SDS011;1382;52.142;11.618;2023-03-12T01:23:06;3.10;;;1.87;;
2748;SDS011;1382;52.142;11.618;2023-03-12T01:25:33;3.80;;;1.50;;
2748;SDS011;1382;52.142;11.618;2023-03-12T01:28:01;4.43;;;1.50;;
2748;SDS011;1382;52.142;11.618;2023-03-12T01:30:29;4.63;;;1.80;;
2748;SDS011;1382;52.142;11.618;2023-03-12T01:32:56;3.07;;;1.40;;
2748;SDS011;1382;52.142;11.618;2023-03-12T01:35:23;3.37;;;2.03;;
2748;SDS011;1382;52.142;11.618;2023-03-12T01:37:50;2.03;;;1.10;;
2748;SDS011;1382;52.142;11.618;2023-03-12T01:40:17;5.30;;;1.43;;
2748;SDS011;1382;52.142;11.618;2023-03-12T01:42:50;3.60;;;1.47;;
2748;SDS011;1382;52.142;11.618;2023-03-12T01:48:26;1.97;;;0.90;;
2748;SDS011;1382;52.142;11.618;2023-03-12T01:50:54;2.70;;;1.60;;
2748;SDS011;1382;52.142;11.618;2023-03-12T01:53:21;3.53;;;1.67;;
2748;SDS011;1382;52.142;11.618;2023-03-12T01:55:48;1.97;;;1.27;;
2748;SDS011;1382;52.142;11.618;2023-03-12T01:58:15;2.27;;;1.50;;
2748;SDS011;1382;52.142;11.618;2023-03-12T02:00:43;1.50;;;1.17;;
2748;SDS011;1382;52.142;11.618;2023-03-12T02:03:11;2.37;;;1.40;;
2748;SDS011;1382;52.142;11.618;2023-03-12T02:05:39;2.77;;;1.40;;
2748;SDS011;1382;52.142;11.618;2023-03-12T02:08:11;5.63;;;1.10;;
2748;SDS011;1382;52.142;11.618;2023-03-12T02:10:39;4.37;;;1.67;;
2748;SDS011;1382;52.142;11.618;2023-03-12T02:13:06;2.20;;;1.50;;
2748;SDS011;1382;52.142;11.618;2023-03-12T02:15:33;1.77;;;1.27;;
2748;SDS011;1382;52.142;11.618;2023-03-12T02:18:01;3.40;;;1.37;;
2748;SDS011;1382;52.142;11.618;2023-03-12T02:20:31;3.50;;;1.20;;
2748;SDS011;1382;52.142;11.618;2023-03-12T02:23:02;6.53;;;1.53;;
2748;SDS011;1382;52.142;11.618;2023-03-12T02:25:34;3.03;;;1.20;;
2748;SDS011;1382;52.142;11.618;2023-03-12T02:28:06;1.80;;;1.50;;
2748;SDS011;1382;52.142;11.618;2023-03-12T02:30:35;2.93;;;1.53;;
2748;SDS011;1382;52.142;11.618;2023-03-12T02:33:04;1.37;;;1.13;;
2748;SDS011;1382;52.142;11.618;2023-03-12T02:35:32;2.20;;;1.10;;
2748;SDS011;1382;52.142;11.618;2023-03-12T02:38:00;4.60;;;1.40;;
2748;SDS011;1382;52.142;11.618;2023-03-12T02:40:28;1.47;;;1.23;;
2748;SDS011;1382;52.142;11.618;2023-03-12T02:43:01;3.17;;;1.43;;
2748;SDS011;1382;52.142;11.618;2023-03-12T02:45:30;2.73;;;1.20;;
2748;SDS011;1382;52.142;11.618;2023-03-12T02:47:58;4.13;;;1.70;;
2748;SDS011;1382;52.142;11.618;2023-03-12T02:50:25;2.80;;;1.30;;
2748;SDS011;1382;52.142;11.618;2023-03-12T02:52:51;5.10;;;1.23;;
2748;SDS011;1382;52.142;11.618;2023-03-12T02:55:18;4.90;;;1.60;;
2748;SDS011;1382;52.142;11.618;2023-03-12T02:57:45;5.20;;;0.90;;
2748;SDS011;1382;52.142;11.618;2023-03-12T03:00:15;3.83;;;1.30;;
2748;SDS011;1382;52.142;11.618;2023-03-12T03:02:42;7.13;;;1.30;;
2748;SDS011;1382;52.142;11.618;2023-03-12T03:05:11;2.10;;;1.37;;
2748;SDS011;1382;52.142;11.618;2023-03-12T03:07:38;6.70;;;2.07;;
2748;SDS011;1382;52.142;11.618;2023-03-12T03:10:05;1.80;;;1.27;;
2748;SDS011;1382;52.142;11.618;2023-03-12T03:12:33;3.30;;;1.33;;
2748;SDS011;1382;52.142;11.618;2023-03-12T03:15:00;3.93;;;1.70;;
2748;SDS011;1382;52.142;11.618;2023-03-12T03:17:30;2.70;;;1.20;;
2748;SDS011;1382;52.142;11.618;2023-03-12T03:19:57;2.43;;;0.97;;
2748;SDS011;1382;52.142;11.618;2023-03-12T03:22:23;5.00;;;1.43;;
2748;SDS011;1382;52.142;11.618;2023-03-12T03:24:51;3.57;;;1.33;;
2748;SDS011;1382;52.142;11.618;2023-03-12T03:27:18;4.10;;;1.20;;
2748;SDS011;1382;52.142;11.618;2023-03-12T03:29:45;1.60;;;1.23;;
2748;SDS011;1382;52.142;11.618;2023-03-12T03:32:11;2.07;;;1.23;;
2748;SDS011;1382;52.142;11.618;2023-03-12T03:34:40;1.27;;;1.17;;
2748;SDS011;1382;52.142;11.618;2023-03-12T03:37:06;2.90;;;1.57;;
2748;SDS011;1382;52.142;11.618;2023-03-12T03:39:33;1.30;;;1.20;;
2748;SDS011;1382;52.142;11.618;2023-03-12T03:42:00;6.50;;;1.50;;
2748;SDS011;1382;52.142;11.618;2023-03-12T03:44:26;1.23;;;0.90;;
2748;SDS011;1382;52.142;11.618;2023-03-12T03:46:53;2.60;;;1.60;;
2748;SDS011;1382;52.142;11.618;2023-03-12T03:49:20;4.67;;;1.17;;
2748;SDS011;1382;52.142;11.618;2023-03-12T03:51:48;1.73;;;1.13;;
2748;SDS011;1382;52.142;11.618;2023-03-12T03:54:15;1.33;;;0.93;;
2748;SDS011;1382;52.142;11.618;2023-03-12T03:56:42;10.80;;;1.63;;
2748;SDS011;1382;52.142;11.618;2023-03-12T03:59:09;6.53;;;1.17;;
2748;SDS011;1382;52.142;11.618;2023-03-12T04:01:36;2.40;;;1.27;;
2748;SDS011;1382;52.142;11.618;2023-03-12T04:04:03;3.70;;;1.30;;
2748;SDS011;1382;52.142;11.618;2023-03-12T04:06:30;3.10;;;1.90;;
2748;SDS011;1382;52.142;11.618;2023-03-12T04:08:58;1.90;;;1.30;;
2748;SDS011;1382;52.142;11.618;2023-03-12T04:11:25;4.57;;;1.20;;
2748;SDS011;1382;52.142;11.618;2023-03-12T04:13:52;1.13;;;0.80;;
2748;SDS011;1382;52.142;11.618;2023-03-12T04:16:19;2.60;;;1.13;;
2748;SDS011;1382;52.142;11.618;2023-03-12T04:18:45;1.40;;;1.23;;
2748;SDS011;1382;52.142;11.618;2023-03-12T04:21:12;2.77;;;1.17;;
2748;SDS011;1382;52.142;11.618;2023-03-12T04:23:39;2.17;;;1.10;;
2748;SDS011;1382;52.142;11.618;2023-03-12T04:26:08;4.07;;;1.30;;
2748;SDS011;1382;52.142;11.618;2023-03-12T04:28:35;2.67;;;1.40;;
2748;SDS011;1382;52.142;11.618;2023-03-12T04:31:03;2.50;;;1.47;;
2748;SDS011;1382;52.142;11.618;2023-03-12T04:33:32;7.50;;;1.60;;
2748;SDS011;1382;52.142;11.618;2023-03-12T04:35:59;4.37;;;1.63;;
2748;SDS011;1382;52.142;11.618;2023-03-12T04:38:26;1.97;;;1.50;;
2748;SDS011;1382;52.142;11.618;2023-03-12T04:40:57;4.37;;;1.47;;
2748;SDS011;1382;52.142;11.618;2023-03-12T04:43:25;4.80;;;1.20;;
2748;SDS011;1382;52.142;11.618;2023-03-12T04:45:52;3.50;;;1.60;;
2748;SDS011;1382;52.142;11.618;2023-03-12T04:48:19;2.37;;;1.17;;
2748;SDS011;1382;52.142;11.618;2023-03-12T04:50:45;7.20;;;1.70;;
2748;SDS011;1382;52.142;11.618;2023-03-12T04:53:12;7.20;;;1.40;;
2748;SDS011;1382;52.142;11.618;2023-03-12T04:55:39;3.03;;;1.40;;
2748;SDS011;1382;52.142;11.618;2023-03-12T04:58:06;3.30;;;1.90;;
2748;SDS011;1382;52.142;11.618;2023-03-12T05:00:34;5.13;;;1.70;;
2748;SDS011;1382;52.142;11.618;2023-03-12T05:03:00;4.50;;;1.70;;
2748;SDS011;1382;52.142;11.618;2023-03-12T05:05:27;1.77;;;1.40;;
2748;SDS011;1382;52.142;11.618;2023-03-12T05:07:54;4.47;;;1.50;;
2748;SDS011;1382;52.142;11.618;2023-03-12T05:10:20;2.60;;;1.17;;
2748;SDS011;1382;52.142;11.618;2023-03-12T05:12:47;2.20;;;1.43;;
2748;SDS011;1382;52.142;11.618;2023-03-12T05:15:14;6.47;;;1.73;;
2748;SDS011;1382;52.142;11.618;2023-03-12T05:17:42;2.30;;;1.03;;
2748;SDS011;1382;52.142;11.618;2023-03-12T05:20:09;4.10;;;1.63;;
2748;SDS011;1382;52.142;11.618;2023-03-12T05:22:37;2.40;;;1.10;;
2748;SDS011;1382;52.142;11.618;2023-03-12T05:25:04;1.60;;;1.50;;
2748;SDS011;1382;52.142;11.618;2023-03-12T05:27:31;5.40;;;1.00;;
2748;SDS011;1382;52.142;11.618;2023-03-12T05:29:58;1.37;;;0.87;;
2748;SDS011;1382;52.142;11.618;2023-03-12T05:32:25;1.23;;;0.80;;
2748;SDS011;1382;52.142;11.618;2023-03-12T05:34:53;3.07;;;1.77;;
2748;SDS011;1382;52.142;11.618;2023-03-12T05:37:20;1.97;;;1.57;;
2748;SDS011;1382;52.142;11.618;2023-03-12T05:39:46;1.83;;;1.30;;
2748;SDS011;1382;52.142;11.618;2023-03-12T05:42:13;1.40;;;1.27;;
2748;SDS011;1382;52.142;11.618;2023-03-12T05:44:41;4.53;;;1.60;;
2748;SDS011;1382;52.142;11.618;2023-03-12T05:47:08;3.23;;;1.07;;
2748;SDS011;1382;52.142;11.618;2023-03-12T05:49:34;2.27;;;1.17;;
2748;SDS011;1382;52.142;11.618;2023-03-12T05:52:03;4.43;;;1.60;;
2748;SDS011;1382;52.142;11.618;2023-03-12T05:54:30;6.27;;;1.50;;
2748;SDS011;1382;52.142;11.618;2023-03-12T05:56:56;5.23;;;1.47;;
2748;SDS011;1382;52.142;11.618;2023-03-12T05:59:23;2.30;;;1.17;;
2748;SDS011;1382;52.142;11.618;2023-03-12T06:01:50;4.40;;;1.90;;
2748;SDS011;1382;52.142;11.618;2023-03-12T06:04:16;2.37;;;1.30;;
2748;SDS011;1382;52.142;11.618;2023-03-12T06:06:43;4.00;;;1.40;;
2748;SDS011;1382;52.142;11.618;2023-03-12T06:09:11;3.03;;;1.30;;
2748;SDS011;1382;52.142;11.618;2023-03-12T06:11:38;1.73;;;1.37;;
2748;SDS011;1382;52.142;11.618;2023-03-12T06:14:05;3.77;;;1.80;;
2748;SDS011;1382;52.142;11.618;2023-03-12T06:16:31;3.00;;;1.63;;
2748;SDS011;1382;52.142;11.618;2023-03-12T06:18:59;2.73;;;1.23;;
2748;SDS011;1382;52.142;11.618;2023-03-12T06:21:28;2.27;;;1.33;;
2748;SDS011;1382;52.142;11.618;2023-03-12T06:23:56;6.33;;;1.90;;
2748;SDS011;1382;52.142;11.618;2023-03-12T06:26:25;2.70;;;1.43;;
2748;SDS011;1382;52.142;11.618;2023-03-12T06:28:52;6.60;;;1.37;;
2748;SDS011;1382;52.142;11.618;2023-03-12T06:31:19;2.50;;;1.17;;
2748;SDS011;1382;52.142;11.618;2023-03-12T06:33:47;7.93;;;2.27;;
2748;SDS011;1382;52.142;11.618;2023-03-12T06:36:14;5.20;;;1.70;;
2748;SDS011;1382;52.142;11.618;2023-03-12T06:38:41;3.97;;;1.47;;
2748;SDS011;1382;52.142;11.618;2023-03-12T06:41:09;4.80;;;1.50;;
2748;SDS011;1382;52.142;11.618;2023-03-12T06:43:39;6.80;;;1.90;;
2748;SDS011;1382;52.142;11.618;2023-03-12T06:46:06;3.80;;;2.07;;
2748;SDS011;1382;52.142;11.618;2023-03-12T06:48:36;2.13;;;1.50;;
2748;SDS011;1382;52.142;11.618;2023-03-12T06:51:02;5.00;;;1.80;;
2748;SDS011;1382;52.142;11.618;2023-03-12T06:53:29;3.70;;;1.97;;
2748;SDS011;1382;52.142;11.618;2023-03-12T06:55:56;4.17;;;2.10;;
2748;SDS011;1382;52.142;11.618;2023-03-12T06:58:23;5.40;;;2.70;;
2748;SDS011;1382;52.142;11.618;2023-03-12T07:00:51;2.13;;;1.73;;
2748;SDS011;1382;52.142;11.618;2023-03-12T07:03:19;4.53;;;1.87;;
2748;SDS011;1382;52.142;11.618;2023-03-12T07:05:46;6.70;;;3.90;;
2748;SDS011;1382;52.142;11.618;2023-03-12T07:08:14;3.17;;;1.90;;
2748;SDS011;1382;52.142;11.618;2023-03-12T07:10:42;6.30;;;3.10;;
2748;SDS011;1382;52.142;11.618;2023-03-12T07:13:09;5.97;;;1.60;;
2748;SDS011;1382;52.142;11.618;2023-03-12T07:15:36;3.37;;;2.27;;
2748;SDS011;1382;52.142;11.618;2023-03-12T07:18:04;4.57;;;1.80;;
2748;SDS011;1382;52.142;11.618;2023-03-12T07:20:32;2.73;;;2.50;;
2748;SDS011;1382;52.142;11.618;2023-03-12T07:23:02;5.20;;;2.77;;
2748;SDS011;1382;52.142;11.618;2023-03-12T07:25:29;3.80;;;2.53;;
2748;SDS011;1382;52.142;11.618;2023-03-12T07:27:55;3.20;;;2.00;;
2748;SDS011;1382;52.142;11.618;2023-03-12T07:30:22;4.20;;;2.40;;
2748;SDS011;1382;52.142;11.618;2023-03-12T07:32:49;9.07;;;2.53;;
2748;SDS011;1382;52.142;11.618;2023-03-12T07:35:17;5.50;;;2.40;;
2748;SDS011;1382;52.142;11.618;2023-03-12T07:37:44;7.60;;;2.40;;
2748;SDS011;1382;52.142;11.618;2023-03-12T07:40:11;5.87;;;3.00;;
2748;SDS011;1382;52.142;11.618;2023-03-12T07:42:38;2.13;;;1.60;;
2748;SDS011;1382;52.142;11.618;2023-03-12T07:45:05;3.27;;;2.20;;
2748;SDS011;1382;52.142;11.618;2023-03-12T07:47:32;2.97;;;2.07;;
2748;SDS011;1382;52.142;11.618;2023-03-12T07:49:59;3.57;;;2.03;;
2748;SDS011;1382;52.142;11.618;2023-03-12T07:52:27;5.73;;;2.40;;
2748;SDS011;1382;52.142;11.618;2023-03-12T07:54:54;6.40;;;3.07;;
2748;SDS011;1382;52.142;11.618;2023-03-12T07:57:21;5.93;;;2.70;;
2748;SDS011;1382;52.142;11.618;2023-03-12T07:59:48;2.37;;;2.10;;
2748;SDS011;1382;52.142;11.618;2023-03-12T08:02:15;3.80;;;2.30;;
2748;SDS011;1382;52.142;11.618;2023-03-12T08:04:42;3.97;;;2.67;;
2748;SDS011;1382;52.142;11.618;2023-03-12T08:07:09;5.83;;;2.43;;
2748;SDS011;1382;52.142;11.618;2023-03-12T08:09:37;6.20;;;2.30;;
2748;SDS011;1382;52.142;11.618;2023-03-12T08:12:04;2.90;;;2.33;;
2748;SDS011;1382;52.142;11.618;2023-03-12T08:14:32;5.10;;;2.53;;
2748;SDS011;1382;52.142;11.618;2023-03-12T08:16:59;2.37;;;2.17;;
2748;SDS011;1382;52.142;11.618;2023-03-12T08:19:26;5.03;;;2.10;;
2748;SDS011;1382;52.142;11.618;2023-03-12T08:21:53;10.10;;;2.80;;
2748;SDS011;1382;52.142;11.618;2023-03-12T08:24:20;4.23;;;1.90;;
2748;SDS011;1382;52.142;11.618;2023-03-12T08:26:49;6.03;;;2.30;;
2748;SDS011;1382;52.142;11.618;2023-03-12T08:29:15;4.83;;;2.27;;
2748;SDS011;1382;52.142;11.618;2023-03-12T08:31:42;6.60;;;2.50;;
2748;SDS011;1382;52.142;11.618;2023-03-12T08:34:29;3.30;;;2.20;;
2748;SDS011;1382;52.142;11.618;2023-03-12T08:36:55;4.43;;;2.47;;
2748;SDS011;1382;52.142;11.618;2023-03-12T08:39:22;2.77;;;2.10;;
2748;SDS011;1382;52.142;11.618;2023-03-12T08:41:50;4.23;;;1.70;;
2748;SDS011;1382;52.142;11.618;2023-03-12T08:44:17;5.00;;;3.00;;
2748;SDS011;1382;52.142;11.618;2023-03-12T08:46:44;7.10;;;2.60;;
2748;SDS011;1382;52.142;11.618;2023-03-12T08:49:10;3.90;;;2.67;;
2748;SDS011;1382;52.142;11.618;2023-03-12T08:51:37;3.73;;;2.23;;
2748;SDS011;1382;52.142;11.618;2023-03-12T08:54:04;3.53;;;2.00;;
2748;SDS011;1382;52.142;11.618;2023-03-12T08:56:31;7.63;;;2.07;;
2748;SDS011;1382;52.142;11.618;2023-03-12T08:58:59;7.87;;;2.10;;
2748;SDS011;1382;52.142;11.618;2023-03-12T09:01:26;2.83;;;2.23;;
2748;SDS011;1382;52.142;11.618;2023-03-12T09:03:52;3.93;;;1.70;;
2748;SDS011;1382;52.142;11.618;2023-03-12T09:06:19;3.23;;;1.90;;
2748;SDS011;1382;52.142;11.618;2023-03-12T09:08:46;5.90;;;2.23;;
2748;SDS011;1382;52.142;11.618;2023-03-12T09:11:13;3.43;;;2.27;;
2748;SDS011;1382;52.142;11.618;2023-03-12T09:13:40;4.23;;;2.10;;
2748;SDS011;1382;52.142;11.618;2023-03-12T09:16:28;4.43;;;2.17;;
2748;SDS011;1382;52.142;11.618;2023-03-12T09:18:55;4.20;;;2.00;;
2748;SDS011;1382;52.142;11.618;2023-03-12T09:21:22;3.97;;;2.03;;
2748;SDS011;1382;52.142;11.618;2023-03-12T09:23:49;3.40;;;2.00;;
2748;SDS011;1382;52.142;11.618;2023-03-12T09:26:15;2.43;;;1.60;;
2748;SDS011;1382;52.142;11.618;2023-03-12T09:28:42;5.80;;;1.80;;
2748;SDS011;1382;52.142;11.618;2023-03-12T09:31:09;3.10;;;1.67;;
2748;SDS011;1382;52.142;11.618;2023-03-12T09:33:38;4.17;;;1.80;;
2748;SDS011;1382;52.142;11.618;2023-03-12T09:36:04;3.10;;;1.97;;
2748;SDS011;1382;52.142;11.618;2023-03-12T09:38:32;2.40;;;1.80;;
2748;SDS011;1382;52.142;11.618;2023-03-12T09:40:58;5.40;;;1.97;;
2748;SDS011;1382;52.142;11.618;2023-03-12T09:43:26;6.00;;;2.20;;
2748;SDS011;1382;52.142;11.618;2023-03-12T09:46:01;2.00;;;1.50;;
2748;SDS011;1382;52.142;11.618;2023-03-12T09:48:35;4.40;;;1.90;;
2748;SDS011;1382;52.142;11.618;2023-03-12T09:51:04;4.00;;;2.10;;
2748;SDS011;1382;52.142;11.618;2023-03-12T09:53:39;3.10;;;2.10;;
2748;SDS011;1382;52.142;11.618;2023-03-12T09:56:11;2.33;;;1.50;;
2748;SDS011;1382;52.142;11.618;2023-03-12T09:58:40;4.43;;;1.80;;
2748;SDS011;1382;52.142;11.618;2023-03-12T10:01:09;3.60;;;1.70;;
2748;SDS011;1382;52.142;11.618;2023-03-12T10:06:52;3.07;;;1.93;;
2748;SDS011;1382;52.142;11.618;2023-03-12T10:09:33;6.47;;;2.27;;
2748;SDS011;1382;52.142;11.618;2023-03-12T10:12:21;2.87;;;1.57;;
2748;SDS011;1382;52.142;11.618;2023-03-12T10:14:55;3.00;;;1.80;;
2748;SDS011;1382;52.142;11.618;2023-03-12T10:17:44;2.30;;;2.03;;
2748;SDS011;1382;52.142;11.618;2023-03-12T10:20:26;5.30;;;2.07;;
2748;SDS011;1382;52.142;11.618;2023-03-12T10:23:12;2.03;;;1.50;;
2748;SDS011;1382;52.142;11.618;2023-03-12T10:25:47;5.43;;;2.50;;
2748;SDS011;1382;52.142;11.618;2023-03-12T10:28:19;6.33;;;2.80;;
2748;SDS011;1382;52.142;11.618;2023-03-12T10:30:52;2.70;;;1.50;;
2748;SDS011;1382;52.142;11.618;2023-03-12T10:33:24;3.00;;;1.77;;
2748;SDS011;1382;52.142;11.618;2023-03-12T10:36:08;5.20;;;2.07;;
2748;SDS011;1382;52.142;11.618;2023-03-12T10:38:40;4.07;;;1.67;;
2748;SDS011;1382;52.142;11.618;2023-03-12T10:41:12;2.30;;;1.53;;
2748;SDS011;1382;52.142;11.618;2023-03-12T10:43:42;5.33;;;2.53;;
2748;SDS011;1382;52.142;11.618;2023-03-12T10:46:30;7.80;;;3.07;;
2748;SDS011;1382;52.142;11.618;2023-03-12T10:49:26;3.80;;;1.60;;
2748;SDS011;1382;52.142;11.618;2023-03-12T10:51:58;5.40;;;1.80;;
2748;SDS011;1382;52.142;11.618;2023-03-12T10:54:31;1.67;;;1.57;;
2748;SDS011;1382;52.142;11.618;2023-03-12T10:56:59;5.87;;;2.50;;
2748;SDS011;1382;52.142;11.618;2023-03-12T10:59:28;5.03;;;2.47;;
2748;SDS011;1382;52.142;11.618;2023-03-12T11:01:56;3.00;;;1.67;;
2748;SDS011;1382;52.142;11.618;2023-03-12T11:04:24;4.03;;;2.00;;
2748;SDS011;1382;52.142;11.618;2023-03-12T11:07:06;4.27;;;1.97;;
2748;SDS011;1382;52.142;11.618;2023-03-12T11:10:02;3.23;;;1.80;;
2748;SDS011;1382;52.142;11.618;2023-03-12T11:12:39;7.33;;;2.73;;
2748;SDS011;1382;52.142;11.618;2023-03-12T11:15:18;4.67;;;2.17;;
2748;SDS011;1382;52.142;11.618;2023-03-12T11:17:46;4.40;;;2.30;;
2748;SDS011;1382;52.142;11.618;2023-03-12T11:20:26;2.60;;;2.07;;
2748;SDS011;1382;52.142;11.618;2023-03-12T11:22:54;5.83;;;2.73;;
2748;SDS011;1382;52.142;11.618;2023-03-12T11:25:23;4.30;;;2.30;;
2748;SDS011;1382;52.142;11.618;2023-03-12T11:27:52;3.30;;;2.07;;
2748;SDS011;1382;52.142;11.618;2023-03-12T11:30:21;3.43;;;2.20;;
2748;SDS011;1382;52.142;11.618;2023-03-12T11:32:51;5.70;;;2.13;;
2748;SDS011;1382;52.142;11.618;2023-03-12T11:35:20;2.70;;;2.20;;
2748;SDS011;1382;52.142;11.618;2023-03-12T11:37:56;3.43;;;2.50;;
2748;SDS011;1382;52.142;11.618;2023-03-12T11:40:43;7.13;;;3.30;;
2748;SDS011;1382;52.142;11.618;2023-03-12T11:43:26;2.50;;;2.30;;
2748;SDS011;1382;52.142;11.618;2023-03-12T11:46:16;5.80;;;1.77;;
2748;SDS011;1382;52.142;11.618;2023-03-12T11:48:55;2.30;;;1.90;;
2748;SDS011;1382;52.142;11.618;2023-03-12T11:51:31;4.03;;;2.27;;
2748;SDS011;1382;52.142;11.618;2023-03-12T11:54:13;8.70;;;2.93;;
2748;SDS011;1382;52.142;11.618;2023-03-12T11:56:54;2.23;;;1.53;;
2748;SDS011;1382;52.142;11.618;2023-03-12T11:59:28;4.80;;;2.50;;
2748;SDS011;1382;52.142;11.618;2023-03-12T12:02:20;4.80;;;3.00;;
2748;SDS011;1382;52.142;11.618;2023-03-12T12:04:59;2.77;;;1.83;;
2748;SDS011;1382;52.142;11.618;2023-03-12T12:07:46;11.10;;;2.43;;
2748;SDS011;1382;52.142;11.618;2023-03-12T12:10:21;5.27;;;2.40;;
2748;SDS011;1382;52.142;11.618;2023-03-12T12:12:57;6.60;;;1.83;;
2748;SDS011;1382;52.142;11.618;2023-03-12T12:15:33;2.87;;;2.03;;
2748;SDS011;1382;52.142;11.618;2023-03-12T12:18:18;4.60;;;2.70;;
2748;SDS011;1382;52.142;11.618;2023-03-12T12:20:57;1.20;;;1.00;;
2748;SDS011;1382;52.142;11.618;2023-03-12T12:23:33;9.23;;;2.33;;
2748;SDS011;1382;52.142;11.618;2023-03-12T12:26:11;5.23;;;2.53;;
2748;SDS011;1382;52.142;11.618;2023-03-12T12:28:46;5.30;;;2.30;;
2748;SDS011;1382;52.142;11.618;2023-03-12T12:31:26;5.13;;;2.67;;
2748;SDS011;1382;52.142;11.618;2023-03-12T12:37:02;5.47;;;2.70;;
2748;SDS011;1382;52.142;11.618;2023-03-12T12:39:40;3.80;;;1.77;;
2748;SDS011;1382;52.142;11.618;2023-03-12T12:42:13;3.90;;;2.40;;
2748;SDS011;1382;52.142;11.618;2023-03-12T12:44:47;5.33;;;2.07;;
2748;SDS011;1382;52.142;11.618;2023-03-12T12:47:17;4.90;;;2.43;;
2748;SDS011;1382;52.142;11.618;2023-03-12T12:49:57;4.00;;;2.63;;
2748;SDS011;1382;52.142;11.618;2023-03-12T12:52:26;1.40;;;1.03;;
2748;SDS011;1382;52.142;11.618;2023-03-12T12:54:55;1.73;;;1.40;;
2748;SDS011;1382;52.142;11.618;2023-03-12T12:57:26;4.27;;;1.07;;
2748;SDS011;1382;52.142;11.618;2023-03-12T13:00:18;3.07;;;1.33;;
2748;SDS011;1382;52.142;11.618;2023-03-12T13:03:02;3.57;;;1.47;;
2748;SDS011;1382;52.142;11.618;2023-03-12T13:05:39;7.27;;;1.63;;
2748;SDS011;1382;52.142;11.618;2023-03-12T13:08:09;3.30;;;1.63;;
2748;SDS011;1382;52.142;11.618;2023-03-12T13:10:57;3.43;;;1.40;;
2748;SDS011;1382;52.142;11.618;2023-03-12T13:13:42;2.23;;;1.80;;
2748;SDS011;1382;52.142;11.618;2023-03-12T13:16:18;7.50;;;1.70;;
2748;SDS011;1382;52.142;11.618;2023-03-12T13:18:57;2.93;;;2.00;;
2748;SDS011;1382;52.142;11.618;2023-03-12T13:21:28;4.00;;;1.87;;
2748;SDS011;1382;52.142;11.618;2023-03-12T13:24:04;3.93;;;2.17;;
2748;SDS011;1382;52.142;11.618;2023-03-12T13:26:47;5.53;;;2.97;;
2748;SDS011;1382;52.142;11.618;2023-03-12T13:29:20;4.53;;;2.33;;
2748;SDS011;1382;52.142;11.618;2023-03-12T13:32:01;2.57;;;2.30;;
2748;SDS011;1382;52.142;11.618;2023-03-12T13:34:29;5.27;;;2.37;;
2748;SDS011;1382;52.142;11.618;2023-03-12T13:37:16;6.97;;;2.13;;
2748;SDS011;1382;52.142;11.618;2023-03-12T13:39:45;5.10;;;3.27;;
2748;SDS011;1382;52.142;11.618;2023-03-12T13:42:25;4.57;;;2.50;;
2748;SDS011;1382;52.142;11.618;2023-03-12T13:45:19;6.70;;;2.30;;
2748;SDS011;1382;52.142;11.618;2023-03-12T13:47:49;2.57;;;2.20;;
2748;SDS011;1382;52.142;11.618;2023-03-12T13:50:23;3.67;;;2.80;;
2748;SDS011;1382;52.142;11.618;2023-03-12T13:52:53;2.90;;;2.37;;
2748;SDS011;1382;52.142;11.618;2023-03-12T13:55:29;2.27;;;2.07;;
2748;SDS011;1382;52.142;11.618;2023-03-12T13:57:59;2.50;;;1.50;;
2748;SDS011;1382;52.142;11.618;2023-03-12T14:00:35;1.63;;;0.90;;
2748;SDS011;1382;52.142;11.618;2023-03-12T14:03:08;5.30;;;2.90;;
2748;SDS011;1382;52.142;11.618;2023-03-12T14:05:43;6.60;;;3.27;;
2748;SDS011;1382;52.142;11.618;2023-03-12T14:08:17;3.63;;;2.00;;
2748;SDS011;1382;52.142;11.618;2023-03-12T14:11:02;3.10;;;1.70;;
2748;SDS011;1382;52.142;11.618;2023-03-12T14:13:46;5.50;;;2.70;;
2748;SDS011;1382;52.142;11.618;2023-03-12T14:16:24;4.27;;;2.43;;
2748;SDS011;1382;52.142;11.618;2023-03-12T14:18:59;2.97;;;2.30;;
2748;SDS011;1382;52.142;11.618;2023-03-12T14:21:28;2.70;;;2.50;;
2748;SDS011;1382;52.142;11.618;2023-03-12T14:23:59;3.27;;;2.67;;
2748;SDS011;1382;52.142;11.618;2023-03-12T14:26:27;3.40;;;2.17;;
2748;SDS011;1382;52.142;11.618;2023-03-12T14:28:57;6.83;;;3.10;;
2748;SDS011;1382;52.142;11.618;2023-03-12T14:31:27;9.93;;;3.87;;
2748;SDS011;1382;52.142;11.618;2023-03-12T14:33:57;3.40;;;2.60;;
2748;SDS011;1382;52.142;11.618;2023-03-12T14:36:31;4.73;;;3.50;;
2748;SDS011;1382;52.142;11.618;2023-03-12T14:39:07;9.30;;;3.70;;
2748;SDS011;1382;52.142;11.618;2023-03-12T14:41:46;3.37;;;2.73;;
2748;SDS011;1382;52.142;11.618;2023-03-12T14:44:19;4.13;;;2.17;;
2748;SDS011;1382;52.142;11.618;2023-03-12T14:46:54;4.70;;;3.40;;
2748;SDS011;1382;52.142;11.618;2023-03-12T14:49:23;7.50;;;3.23;;
2748;SDS011;1382;52.142;11.618;2023-03-12T14:51:49;8.00;;;3.63;;
2748;SDS011;1382;52.142;11.618;2023-03-12T14:54:17;4.83;;;3.50;;
2748;SDS011;1382;52.142;11.618;2023-03-12T14:56:46;4.00;;;3.10;;
2748;SDS011;1382;52.142;11.618;2023-03-12T14:59:19;3.93;;;3.03;;
2748;SDS011;1382;52.142;11.618;2023-03-12T15:01:48;9.77;;;3.73;;
2748;SDS011;1382;52.142;11.618;2023-03-12T15:04:17;4.83;;;3.63;;
2748;SDS011;1382;52.142;11.618;2023-03-12T15:06:48;6.60;;;3.50;;
2748;SDS011;1382;52.142;11.618;2023-03-12T15:09:19;5.57;;;3.47;;
2748;SDS011;1382;52.142;11.618;2023-03-12T15:11:50;5.43;;;3.43;;
2748;SDS011;1382;52.142;11.618;2023-03-12T15:14:18;8.63;;;3.67;;
2748;SDS011;1382;52.142;11.618;2023-03-12T15:16:47;6.53;;;3.77;;
2748;SDS011;1382;52.142;11.618;2023-03-12T15:19:15;6.47;;;4.40;;
2748;SDS011;1382;52.142;11.618;2023-03-12T15:21:48;4.43;;;3.07;;
2748;SDS011;1382;52.142;11.618;2023-03-12T15:24:15;4.53;;;3.90;;
2748;SDS011;1382;52.142;11.618;2023-03-12T15:26:42;5.50;;;3.37;;
2748;SDS011;1382;52.142;11.618;2023-03-12T15:29:17;4.50;;;3.70;;